Time;durP1;ratioP1;P1;durP2;ratioP2;P2;SDS_P1;SDS_P2;PMS_P1;PMS_P2;Temp;Humidity;BMP_temperature;BMP_pressure;BME280_temperature;BME280_humidity;BME280_pressure;Samples;Min_cycle;Max_cycle;Signal;HPM_P1;HPM_P2
2021/06/21 00:01:41;;;;;;;13.38;6.28;;;14.40;99.90;;;;;;6214842;23;20020;-88
2021/06/21 00:04:13;;;;;;;20.33;6.10;;;14.30;99.90;;;;;;6238663;23;20015;-87
2021/06/21 00:06:46;;;;;;;10.85;5.57;;;14.30;99.90;;;;;;6233215;23;20020;-89
2021/06/21 00:09:15;;;;;;;13.45;4.90;;;14.20;99.90;;;;;;6201263;23;20399;-91
2021/06/21 00:11:45;;;;;;;7.88;3.90;;;14.20;99.90;;;;;;6228930;23;20022;-88
2021/06/21 00:14:16;;;;;;;10.43;3.95;;;14.20;99.90;;;;;;6180634;23;20024;-89
2021/06/21 00:16:44;;;;;;;7.07;3.92;;;14.20;99.90;;;;;;6201435;23;20020;-87
2021/06/21 00:19:14;;;;;;;13.98;4.75;;;14.20;99.90;;;;;;6199513;23;20020;-91
2021/06/21 00:21:44;;;;;;;11.20;4.63;;;14.20;99.90;;;;;;6228252;23;20034;-87
2021/06/21 00:24:21;;;;;;;12.15;4.50;;;14.20;99.90;;;;;;6253175;23;20695;-89
2021/06/21 00:26:51;;;;;;;13.63;5.00;;;14.10;99.90;;;;;;6181220;23;20024;-87
2021/06/21 00:29:20;;;;;;;11.43;3.97;;;14.10;99.90;;;;;;6228281;23;20028;-89
2021/06/21 00:31:48;;;;;;;8.32;3.92;;;14.20;99.90;;;;;;6201850;23;20016;-87
2021/06/21 00:34:16;;;;;;;9.57;4.25;;;14.10;99.90;;;;;;6198962;23;20034;-90
2021/06/21 00:36:48;;;;;;;7.25;3.92;;;14.10;99.90;;;;;;6201562;23;20023;-88
2021/06/21 00:39:58;;;;;;;6.68;3.15;;;14.10;99.90;;;;;;6212529;23;20016;-86
2021/06/21 00:42:26;;;;;;;9.93;3.45;;;14.00;99.90;;;;;;6204944;23;20020;-88
2021/06/21 00:44:55;;;;;;;5.78;2.92;;;14.00;99.90;;;;;;6238406;23;20024;-86
2021/06/21 00:47:24;;;;;;;9.90;3.67;;;14.00;99.90;;;;;;6232395;23;20016;-91
2021/06/21 00:49:57;;;;;;;8.43;3.90;;;14.00;99.90;;;;;;6199207;23;20030;-88
2021/06/21 00:52:25;;;;;;;8.18;4.28;;;14.00;99.90;;;;;;6248353;23;20024;-90
2021/06/21 00:55:00;;;;;;;11.30;4.95;;;14.00;99.90;;;;;;6197384;23;20355;-87
2021/06/21 00:57:30;;;;;;;14.82;5.18;;;14.00;99.90;;;;;;6220433;23;20016;-89
2021/06/21 01:00:08;;;;;;;11.63;6.00;;;14.00;99.90;;;;;;6196631;23;20024;-89
2021/06/21 01:02:37;;;;;;;14.40;5.47;;;14.00;99.90;;;;;;6195687;23;20034;-89
2021/06/21 01:05:09;;;;;;;10.30;4.73;;;14.00;99.90;;;;;;6220502;23;20095;-87
2021/06/21 01:07:38;;;;;;;15.73;5.85;;;13.90;99.90;;;;;;6220142;23;20016;-90
2021/06/21 01:10:08;;;;;;;10.18;5.15;;;13.90;99.90;;;;;;6218945;23;20024;-88
2021/06/21 01:13:15;;;;;;;13.90;4.88;;;13.90;99.90;;;;;;6213601;23;20108;-87
2021/06/21 01:16:17;;;;;;;11.25;3.92;;;13.90;99.90;;;;;;6185086;23;20016;-88
2021/06/21 01:19:02;;;;;;;13.60;4.38;;;13.80;99.90;;;;;;6215862;23;20491;-88
2021/06/21 01:21:54;;;;;;;6.38;3.47;;;13.80;99.90;;;;;;6218494;23;20024;-89
2021/06/21 01:25:00;;;;;;;8.10;3.00;;;13.80;99.90;;;;;;6246040;23;20020;-88
2021/06/21 01:27:57;;;;;;;8.52;3.83;;;13.80;99.90;;;;;;6195905;23;20047;-85
2021/06/21 01:30:45;;;;;;;8.70;4.68;;;13.70;99.90;;;;;;6216930;23;20030;-89
2021/06/21 01:33:22;;;;;;;5.88;3.45;;;13.70;99.90;;;;;;6194096;23;20016;-90
2021/06/21 01:36:00;;;;;;;13.30;4.43;;;13.70;99.90;;;;;;6220342;23;20332;-88
2021/06/21 01:38:39;;;;;;;12.88;4.57;;;13.70;99.90;;;;;;6194855;23;20023;-87
2021/06/21 01:41:15;;;;;;;10.73;4.43;;;13.70;99.90;;;;;;6218346;23;20016;-90
2021/06/21 01:43:45;;;;;;;9.27;4.28;;;13.70;99.90;;;;;;6218609;23;20031;-89
2021/06/21 01:46:16;;;;;;;11.90;4.40;;;13.80;99.90;;;;;;6169498;23;20016;-91
2021/06/21 01:48:51;;;;;;;;;;;13.70;99.90;;;;;;6244261;23;20020;-90
2021/06/21 01:51:21;;;;;;;8.65;4.20;;;13.70;99.90;;;;;;6216773;23;19915;-88
2021/06/21 01:53:56;;;;;;;9.43;4.25;;;13.70;99.90;;;;;;6217690;23;20027;-90
2021/06/21 01:56:30;;;;;;;10.70;4.72;;;13.70;99.90;;;;;;6219290;23;20019;-92
2021/06/21 01:59:01;;;;;;;22.15;7.40;;;13.70;99.90;;;;;;6193851;23;20020;-90
2021/06/21 02:01:31;;;;;;;15.35;4.28;;;13.60;99.90;;;;;;6244054;23;20020;-86
2021/06/21 02:04:01;;;;;;;13.30;5.10;;;13.70;99.90;;;;;;6192018;23;20027;-87
2021/06/21 02:06:32;;;;;;;19.77;6.37;;;13.70;99.90;;;;;;6212558;23;20022;-86
2021/06/21 02:09:03;;;;;;;12.20;6.37;;;13.70;99.90;;;;;;6244656;23;20261;-87
2021/06/21 02:11:32;;;;;;;14.07;6.20;;;13.60;99.90;;;;;;6225148;23;20012;-87
2021/06/21 02:14:03;;;;;;;14.82;6.63;;;13.60;99.90;;;;;;6176394;23;20027;-89
2021/06/21 02:16:32;;;;;;;13.45;5.45;;;13.60;99.90;;;;;;6226293;23;20463;-89
2021/06/21 02:19:01;;;;;;;16.95;7.00;;;13.60;99.90;;;;;;6198878;23;20020;-90
2021/06/21 02:21:30;;;;;;;11.02;4.78;;;13.60;99.90;;;;;;6215651;23;20022;-90
2021/06/21 02:23:58;;;;;;;11.68;5.00;;;13.80;99.90;;;;;;6188481;23;20080;-87
2021/06/21 02:26:26;;;;;;;17.63;6.63;;;13.60;99.90;;;;;;6194755;23;20329;-87
2021/06/21 02:29:00;;;;;;;12.15;3.85;;;13.60;99.90;;;;;;6222602;23;20022;-86
2021/06/21 02:31:29;;;;;;;12.55;5.18;;;13.50;99.90;;;;;;6225439;23;20099;-89
2021/06/21 02:33:58;;;;;;;10.15;4.90;;;13.50;99.90;;;;;;6259165;23;20039;-90
2021/06/21 02:36:27;;;;;;;10.82;4.30;;;13.50;99.90;;;;;;6232984;23;20008;-90
2021/06/21 02:38:57;;;;;;;12.35;4.80;;;13.50;99.90;;;;;;6218765;23;20014;-88
2021/06/21 02:41:25;;;;;;;10.73;4.33;;;13.50;99.90;;;;;;6269626;22;20095;-89
2021/06/21 02:43:53;;;;;;;19.13;6.07;;;13.50;99.90;;;;;;6232042;23;20436;-88
2021/06/21 02:46:21;;;;;;;23.85;8.23;;;13.40;99.90;;;;;;6228700;23;20018;-89
2021/06/21 02:48:49;;;;;;;15.65;7.22;;;13.40;99.90;;;;;;6228023;23;20022;-90
2021/06/21 02:51:23;;;;;;;17.20;8.93;;;13.40;99.90;;;;;;6202144;23;20027;-89
2021/06/21 02:54:03;;;;;;;21.67;8.73;;;13.40;99.90;;;;;;6226646;23;20022;-88
2021/06/21 02:57:29;;;;;;;20.38;7.78;;;13.40;99.90;;;;;;6229084;23;20023;-88
2021/06/21 02:59:58;;;;;;;17.10;7.55;;;13.40;99.90;;;;;;6101908;23;20029;-89
2021/06/21 03:02:28;;;;;;;19.67;8.98;;;13.40;99.90;;;;;;6130070;23;20020;-89
2021/06/21 03:05:00;;;;;;;22.17;9.13;;;13.80;99.90;;;;;;6161386;23;20343;-88
2021/06/21 03:07:30;;;;;;;26.27;9.55;;;13.30;99.90;;;;;;6202613;23;20030;-88
2021/06/21 03:10:00;;;;;;;17.77;8.30;;;13.30;99.90;;;;;;6251198;23;20020;-88
2021/06/21 03:12:31;;;;;;;19.58;10.15;;;13.30;99.90;;;;;;6224975;23;20347;-88
2021/06/21 03:15:01;;;;;;;19.73;9.63;;;13.30;99.90;;;;;;6218531;23;20013;-86
2021/06/21 03:17:33;;;;;;;18.05;8.48;;;13.30;99.90;;;;;;6193405;23;20452;-88
2021/06/21 03:20:01;;;;;;;18.52;8.40;;;13.20;99.90;;;;;;6249432;23;20016;-88
2021/06/21 03:22:31;;;;;;;18.85;6.55;;;13.20;99.90;;;;;;6219155;23;20017;-87
2021/06/21 03:24:59;;;;;;;17.70;5.88;;;13.20;99.90;;;;;;6245042;23;20020;-88
2021/06/21 03:27:32;;;;;;;19.50;8.20;;;13.20;99.90;;;;;;6190831;23;20027;-88
2021/06/21 03:30:05;;;;;;;18.95;8.68;;;13.20;99.90;;;;;;6216769;23;20013;-89
2021/06/21 03:32:34;;;;;;;;;;;13.20;99.90;;;;;;6242044;23;20020;-88
2021/06/21 03:35:05;;;;;;;23.42;7.53;;;13.20;99.90;;;;;;6166035;23;19915;-88
2021/06/21 03:37:33;;;;;;;16.70;7.13;;;14.00;99.90;;;;;;6214534;23;20566;-89
2021/06/21 03:40:01;;;;;;;13.88;5.50;;;13.20;99.90;;;;;;6211627;23;20016;-87
2021/06/21 03:42:29;;;;;;;13.23;6.15;;;13.20;99.90;;;;;;6216159;23;20020;-88
2021/06/21 03:44:57;;;;;;;7.18;4.72;;;13.20;99.90;;;;;;6241765;23;20020;-89
2021/06/21 03:47:25;;;;;;;12.75;4.55;;;13.20;99.90;;;;;;6217158;23;20055;-87
2021/06/21 03:49:53;;;;;;;10.98;4.53;;;13.20;99.90;;;;;;6217639;23;20020;-87
2021/06/21 03:52:21;;;;;;;15.77;4.97;;;13.20;99.90;;;;;;6190194;23;20016;-88
2021/06/21 03:55:06;;;;;;;10.32;5.43;;;13.10;99.90;;;;;;6241851;23;20023;-88
2021/06/21 03:57:38;;;;;;;13.18;4.25;;;13.20;99.90;;;;;;6216463;23;20440;-88
2021/06/21 04:00:18;;;;;;;12.52;4.55;;;13.20;99.90;;;;;;6242967;23;20035;-87
2021/06/21 04:02:47;;;;;;;13.90;6.00;;;13.20;99.90;;;;;;6190343;23;20012;-85
2021/06/21 04:05:15;;;;;;;9.80;5.25;;;13.20;99.90;;;;;;6190832;23;20020;-87
2021/06/21 04:07:44;;;;;;;12.13;4.78;;;13.20;99.90;;;;;;6246505;23;20023;-87
2021/06/21 04:10:15;;;;;;;18.40;5.28;;;13.20;99.90;;;;;;6168438;23;20028;-86
2021/06/21 04:12:44;;;;;;;15.52;4.80;;;13.20;99.90;;;;;;6242647;23;20020;-86
2021/06/21 04:15:15;;;;;;;10.30;4.47;;;13.20;99.90;;;;;;6242905;23;20336;-87
2021/06/21 04:17:44;;;;;;;7.15;3.92;;;13.10;99.90;;;;;;6217449;23;20012;-86
2021/06/21 04:20:19;;;;;;;15.88;4.53;;;13.20;99.90;;;;;;6218276;23;20027;-85
2021/06/21 04:22:47;;;;;;;12.68;4.32;;;13.20;99.90;;;;;;6197996;23;20023;-87
2021/06/21 04:25:17;;;;;;;15.85;6.40;;;13.10;99.90;;;;;;6192306;23;20031;-88
2021/06/21 04:27:46;;;;;;;9.30;4.03;;;13.10;99.90;;;;;;6243523;23;20023;-87
2021/06/21 04:30:17;;;;;;;14.13;4.63;;;13.10;99.90;;;;;;6216776;23;20027;-86
2021/06/21 04:32:45;;;;;;;7.68;4.57;;;13.10;99.90;;;;;;6189578;23;20020;-86
2021/06/21 04:35:16;;;;;;;14.00;5.57;;;13.10;99.90;;;;;;6168570;23;20016;-88
2021/06/21 04:37:45;;;;;;;8.98;4.22;;;13.10;99.90;;;;;;6218114;23;20020;-88
2021/06/21 04:40:16;;;;;;;13.13;4.63;;;13.10;99.90;;;;;;6243384;23;20332;-88
2021/06/21 04:42:45;;;;;;;10.20;4.80;;;13.10;99.90;;;;;;6192910;23;20023;-88
2021/06/21 04:45:14;;;;;;;10.10;4.57;;;13.10;99.90;;;;;;6220057;23;20035;-87
2021/06/21 04:47:42;;;;;;;10.60;4.60;;;13.10;99.90;;;;;;6214661;23;20336;-86
2021/06/21 04:50:14;;;;;;;9.80;5.15;;;13.10;99.90;;;;;;6242216;23;20024;-87
2021/06/21 04:52:42;;;;;;;;;;;13.10;99.90;;;;;;6243520;23;20019;-89
2021/06/21 04:55:12;;;;;;;25.17;6.15;;;13.10;99.90;;;;;;6242588;23;19926;-87
2021/06/21 04:57:41;;;;;;;15.30;4.40;;;13.10;99.90;;;;;;6216677;23;20482;-87
2021/06/21 05:00:14;;;;;;;14.20;4.13;;;13.10;99.90;;;;;;6193876;23;20020;-86
2021/06/21 05:02:42;;;;;;;17.30;4.50;;;13.10;99.90;;;;;;6255031;23;20096;-87
2021/06/21 05:05:11;;;;;;;13.13;4.20;;;13.10;99.90;;;;;;6243962;23;20173;-86
2021/06/21 05:07:40;;;;;;;10.13;4.68;;;13.10;99.90;;;;;;6224175;23;20026;-87
2021/06/21 05:10:10;;;;;;;14.45;4.20;;;13.20;99.90;;;;;;6197307;23;20020;-87
2021/06/21 05:12:39;;;;;;;11.57;6.25;;;13.20;99.90;;;;;;6221986;23;20016;-87
2021/06/21 05:15:07;;;;;;;8.95;3.88;;;13.20;99.90;;;;;;6219888;23;20031;-86
2021/06/21 05:17:36;;;;;;;12.85;4.70;;;13.20;99.90;;;;;;6193674;23;20016;-85
2021/06/21 05:20:06;;;;;;;15.13;4.10;;;12.60;99.90;;;;;;6221017;23;20024;-87
2021/06/21 05:22:34;;;;;;;16.75;3.97;;;13.20;99.90;;;;;;6218018;23;20012;-86
2021/06/21 05:25:04;;;;;;;14.05;4.88;;;13.20;99.90;;;;;;6223700;23;20031;-87
2021/06/21 05:27:32;;;;;;;15.52;4.82;;;13.20;99.90;;;;;;6193580;23;20020;-86
2021/06/21 05:30:00;;;;;;;15.25;3.70;;;13.20;99.90;;;;;;6192162;23;20027;-85
2021/06/21 05:32:28;;;;;;;12.25;3.63;;;13.30;99.90;;;;;;6246217;23;20017;-86
2021/06/21 05:34:57;;;;;;;8.82;3.65;;;13.20;99.90;;;;;;6191348;23;20020;-87
2021/06/21 05:37:25;;;;;;;18.52;4.55;;;13.20;99.90;;;;;;6242488;23;20016;-86
2021/06/21 05:39:55;;;;;;;10.55;4.68;;;13.30;99.90;;;;;;6221203;23;20016;-87
2021/06/21 05:42:24;;;;;;;12.27;4.43;;;13.30;99.90;;;;;;6245716;23;20076;-86
2021/06/21 05:44:52;;;;;;;11.98;4.93;;;13.20;99.90;;;;;;6221780;23;20023;-87
2021/06/21 05:47:20;;;;;;;9.73;5.35;;;13.20;99.90;;;;;;6195593;23;20020;-87
2021/06/21 05:49:48;;;;;;;10.77;4.10;;;13.20;99.90;;;;;;6246885;23;20016;-87
2021/06/21 05:52:16;;;;;;;14.32;5.47;;;13.20;99.90;;;;;;6172419;23;20022;-88
2021/06/21 05:54:44;;;;;;;24.02;5.25;;;13.20;99.90;;;;;;6247624;23;20024;-86
2021/06/21 05:57:13;;;;;;;8.88;3.38;;;13.20;99.90;;;;;;6196713;23;20035;-86
2021/06/21 05:59:43;;;;;;;8.52;4.65;;;13.20;99.90;;;;;;6199247;23;20012;-86
2021/06/21 06:02:14;;;;;;;12.75;4.00;;;13.20;99.90;;;;;;6246586;23;20020;-87
2021/06/21 06:04:42;;;;;;;9.27;5.13;;;13.30;99.90;;;;;;6221128;23;20020;-86
2021/06/21 06:07:11;;;;;;;17.10;4.40;;;13.30;99.90;;;;;;6222602;23;20456;-87
2021/06/21 06:09:41;;;;;;;13.82;5.47;;;13.30;99.90;;;;;;6220348;23;20035;-89
2021/06/21 06:12:10;;;;;;;8.20;4.90;;;13.30;99.90;;;;;;6243384;23;20836;-87
2021/06/21 06:14:38;;;;;;;8.48;4.45;;;13.30;99.90;;;;;;6242764;23;20501;-86
2021/06/21 06:17:07;;;;;;;9.73;4.25;;;13.30;99.90;;;;;;6192431;23;20013;-87
2021/06/21 06:19:34;;;;;;;14.00;4.15;;;13.40;99.90;;;;;;6251341;23;20028;-89
2021/06/21 06:22:02;;;;;;;8.73;3.92;;;13.40;99.90;;;;;;6244690;23;20043;-87
2021/06/21 06:24:30;;;;;;;11.15;3.20;;;13.40;99.90;;;;;;6218626;23;20016;-87
2021/06/21 06:26:59;;;;;;;18.15;4.38;;;13.40;99.90;;;;;;6219742;23;20463;-86
2021/06/21 06:29:29;;;;;;;14.38;3.90;;;13.40;99.90;;;;;;6246825;23;20016;-88
2021/06/21 06:32:25;;;;;;;6.75;4.57;;;13.50;99.90;;;;;;6225914;23;20027;-94
2021/06/21 06:34:53;;;;;;;9.05;3.85;;;13.50;99.90;;;;;;6219368;23;20030;-88
2021/06/21 06:37:21;;;;;;;10.70;3.92;;;13.50;99.90;;;;;;6223682;23;20024;-89
2021/06/21 06:39:49;;;;;;;12.80;4.38;;;13.50;99.90;;;;;;6195959;23;20020;-88
2021/06/21 06:42:18;;;;;;;8.45;3.60;;;13.50;99.90;;;;;;6222160;23;20016;-88
2021/06/21 06:44:47;;;;;;;11.80;4.28;;;13.50;99.90;;;;;;6198184;23;20028;-86
2021/06/21 06:47:15;;;;;;;15.57;4.50;;;13.50;99.90;;;;;;6230040;23;20023;-90
2021/06/21 06:49:44;;;;;;;13.55;4.18;;;13.50;99.90;;;;;;6198590;23;20016;-92
2021/06/21 06:52:20;;;;;;;9.70;6.82;;;13.50;99.90;;;;;;6200558;23;20020;-91
2021/06/21 06:57:43;;;;;;;10.77;3.72;;;13.50;99.90;;;;;;6198936;23;20030;-91
2021/06/21 07:00:13;;;;;;;8.45;3.78;;;13.60;99.90;;;;;;6173378;23;20016;-91
2021/06/21 07:02:44;;;;;;;16.08;4.20;;;13.50;99.90;;;;;;6194545;23;20020;-90
2021/06/21 07:05:12;;;;;;;14.07;4.60;;;13.50;99.90;;;;;;6200699;23;20332;-90
2021/06/21 07:07:42;;;;;;;17.08;5.60;;;13.40;99.90;;;;;;6177439;23;20024;-89
2021/06/21 07:10:11;;;;;;;8.60;4.18;;;13.40;99.90;;;;;;6181976;23;20020;-91
2021/06/21 07:12:39;;;;;;;12.60;4.82;;;13.40;99.90;;;;;;6216233;22;20016;-91
2021/06/21 07:15:09;;;;;;;8.98;4.63;;;13.40;99.90;;;;;;6230951;22;20033;-91
2021/06/21 07:17:38;;;;;;;11.25;4.50;;;13.40;99.90;;;;;;6210506;22;20022;-90
2021/06/21 07:20:07;;;;;;;12.45;4.75;;;13.40;99.90;;;;;;6226935;22;20371;-90
2021/06/21 07:22:36;;;;;;;13.25;7.00;;;13.50;99.90;;;;;;6228895;22;20024;-92
2021/06/21 07:25:08;;;;;;;19.33;5.93;;;13.50;99.90;;;;;;6233453;22;20026;-89
2021/06/21 07:27:38;;;;;;;10.80;4.60;;;13.50;99.90;;;;;;6229593;22;20038;-88
2021/06/21 07:30:09;;;;;;;11.45;4.10;;;13.50;99.90;;;;;;6262432;22;20016;-93
2021/06/21 07:32:40;;;;;;;14.35;7.30;;;13.50;99.90;;;;;;6286077;22;20066;-91
2021/06/21 07:35:11;;;;;;;17.80;5.32;;;13.40;99.90;;;;;;6203365;22;20022;-92
2021/06/21 07:37:40;;;;;;;12.30;4.75;;;13.40;99.90;;;;;;6197632;22;20019;-90
2021/06/21 07:40:08;;;;;;;16.42;5.05;;;13.40;99.90;;;;;;6221236;22;20455;-91
2021/06/21 07:42:37;;;;;;;17.40;5.30;;;13.40;99.90;;;;;;6251164;22;20019;-91
2021/06/21 07:45:10;;;;;;;12.75;6.03;;;13.60;99.90;;;;;;6234590;22;20012;-90
2021/06/21 07:47:47;;;;;;;11.05;5.13;;;13.40;99.90;;;;;;6265721;22;20019;-92
2021/06/21 07:50:30;;;;;;;17.48;5.85;;;13.40;99.90;;;;;;6214235;22;20038;-92
2021/06/21 07:53:03;;;;;;;16.80;5.03;;;14.80;99.90;;;;;;6247509;22;20016;-91
2021/06/21 07:55:31;;;;;;;19.42;5.35;;;14.20;99.90;;;;;;6242494;22;20021;-91
2021/06/21 07:58:01;;;;;;;16.15;5.82;;;13.50;99.90;;;;;;6269312;22;20022;-92
2021/06/21 08:00:33;;;;;;;13.15;5.80;;;13.50;99.90;;;;;;6241625;22;20049;-92
2021/06/21 08:03:04;;;;;;;15.75;6.57;;;13.50;99.90;;;;;;6207844;22;20027;-86
2021/06/21 08:05:35;;;;;;;16.40;6.38;;;13.50;99.90;;;;;;6257882;22;20019;-86
2021/06/21 08:08:06;;;;;;;21.25;6.97;;;13.50;99.90;;;;;;6232926;22;20019;-93
2021/06/21 08:10:43;;;;;;;17.42;6.22;;;13.50;99.90;;;;;;6231916;22;20026;-93
2021/06/21 08:13:16;;;;;;;14.27;6.72;;;13.40;99.90;;;;;;6233534;22;20015;-94
2021/06/21 08:16:12;;;;;;;15.77;5.97;;;13.40;99.90;;;;;;6219570;22;20018;-94
2021/06/21 08:18:45;;;;;;;17.55;7.40;;;13.40;99.90;;;;;;6216034;22;20015;-94
2021/06/21 08:21:16;;;;;;;10.07;5.63;;;13.50;99.90;;;;;;6261109;22;20018;-94
2021/06/21 08:23:48;;;;;;;14.05;5.72;;;13.40;99.90;;;;;;6211403;22;20015;-93
2021/06/21 08:26:27;;;;;;;13.48;6.93;;;13.40;99.90;;;;;;6237511;22;20304;-92
2021/06/21 08:29:01;;;;;;;16.50;6.68;;;13.40;99.90;;;;;;6236714;22;20022;-94
2021/06/21 08:31:30;;;;;;;14.98;6.47;;;13.40;99.90;;;;;;6203757;23;20083;-94
2021/06/21 08:34:02;;;;;;;19.48;6.65;;;13.40;99.90;;;;;;6203457;23;20012;-94
2021/06/21 08:36:35;;;;;;;17.45;7.88;;;13.40;99.90;;;;;;6202551;23;20039;-93
2021/06/21 08:39:05;;;;;;;21.90;6.93;;;13.40;99.90;;;;;;6180598;23;20024;-93
2021/06/21 08:41:41;;;;;;;17.92;6.45;;;13.40;99.90;;;;;;6206305;23;20027;-92
2021/06/21 08:44:14;;;;;;;16.63;6.15;;;13.50;99.90;;;;;;6185026;23;20012;-93
2021/06/21 08:47:50;;;;;;;23.33;6.65;;;13.50;99.90;;;;;;6211015;23;20027;-94
2021/06/21 08:50:25;;;;;;;20.33;6.78;;;13.40;99.90;;;;;;6179135;23;20012;-93
2021/06/21 08:53:24;;;;;;;20.77;6.85;;;13.50;99.90;;;;;;6233219;23;20022;-94
2021/06/21 08:57:07;;;;;;;21.33;7.90;;;13.50;99.90;;;;;;6238802;23;20016;-94
2021/06/21 08:59:58;;;;;;;15.48;7.60;;;14.10;99.90;;;;;;6235944;23;20018;-95
2021/06/21 09:03:37;;;;;;;16.38;7.25;;;13.30;99.90;;;;;;6222717;23;20038;-94
2021/06/21 09:06:22;;;;;;;14.32;7.97;;;13.60;99.90;;;;;;6183584;23;20034;-93
2021/06/21 09:10:34;;;;;;;9.88;4.95;;;13.70;99.90;;;;;;6264093;23;20035;-95
2021/06/21 09:14:18;;;;;;;15.77;5.80;;;13.70;99.90;;;;;;6109454;23;20021;-94
2021/06/21 09:17:41;;;;;;;15.65;6.45;;;12.70;99.90;;;;;;6210563;23;20586;-93
2021/06/21 09:20:31;;;;;;;15.35;5.95;;;13.70;99.90;;;;;;6169845;23;20017;-93
2021/06/21 09:23:33;;;;;;;15.85;6.47;;;13.70;99.90;;;;;;6151130;23;20024;-93
2021/06/21 09:26:32;;;;;;;19.13;5.32;;;13.30;99.90;;;;;;6149928;23;20020;-93
2021/06/21 09:29:38;;;;;;;21.13;6.95;;;13.90;99.90;;;;;;6122755;23;20020;-94
2021/06/21 09:32:53;;;;;;;13.25;5.80;;;13.90;99.90;;;;;;6143246;23;20035;-94
2021/06/21 09:35:50;;;;;;;13.93;4.38;;;13.90;99.90;;;;;;6121965;23;20021;-93
2021/06/21 09:38:39;;;;;;;10.55;4.30;;;14.00;99.90;;;;;;6171674;23;20024;-94
2021/06/21 09:46:18;;;;;;;15.65;5.53;;;14.20;99.90;;;;;;6211483;23;20015;-93
2021/06/21 09:48:58;;;;;;;17.40;5.85;;;15.50;99.90;;;;;;6129541;23;20027;-93
2021/06/21 09:56:51;;;;;;;16.35;5.35;;;14.00;99.90;;;;;;6212132;23;20015;-93
2021/06/21 09:59:36;;;;;;;16.50;6.07;;;14.00;99.90;;;;;;6125008;23;20031;-93
2021/06/21 10:02:20;;;;;;;19.73;6.22;;;14.00;99.90;;;;;;6150628;23;20445;-93
2021/06/21 10:11:08;;;;;;;14.65;5.30;;;14.00;99.90;;;;;;6202133;23;20005;-94
2021/06/21 10:13:52;;;;;;;14.30;4.78;;;14.00;99.90;;;;;;6182216;23;20031;-94
2021/06/21 10:16:47;;;;;;;15.98;5.53;;;14.10;99.90;;;;;;6175562;23;20031;-93
2021/06/21 10:19:50;;;;;;;9.77;4.35;;;14.10;99.90;;;;;;6154926;23;20068;-94
2021/06/21 10:26:11;;;;;;;11.20;5.03;;;14.20;99.90;;;;;;6209084;23;20314;-94
2021/06/21 10:29:48;;;;;;;18.50;5.28;;;13.90;99.90;;;;;;6167671;23;20009;-93
2021/06/21 10:32:46;;;;;;;11.43;5.43;;;14.40;99.90;;;;;;6180599;23;20025;-92
2021/06/21 10:35:24;;;;;;;15.82;5.03;;;14.40;99.90;;;;;;6151945;23;20017;-93
2021/06/21 10:39:36;;;;;;;15.10;6.75;;;14.50;99.90;;;;;;6150824;23;20024;-93
2021/06/21 10:42:25;;;;;;;13.25;5.20;;;14.50;99.90;;;;;;6151888;23;20025;-93
2021/06/21 10:45:29;;;;;;;15.45;5.85;;;14.40;99.90;;;;;;6109753;22;20020;-93
2021/06/21 10:48:11;;;;;;;22.15;6.70;;;14.50;99.90;;;;;;6161165;23;20307;-92
2021/06/21 10:50:52;;;;;;;15.68;5.97;;;14.30;99.90;;;;;;6204168;23;20043;-92
2021/06/21 10:53:21;;;;;;;24.02;7.78;;;14.30;99.90;;;;;;6162887;23;20031;-92
2021/06/21 10:55:54;;;;;;;15.65;6.50;;;14.40;99.90;;;;;;6161250;23;20020;-92
2021/06/21 10:58:24;;;;;;;15.55;7.05;;;14.40;99.90;;;;;;6160900;23;20019;-90
2021/06/21 11:00:54;;;;;;;19.00;5.88;;;14.40;99.90;;;;;;6158340;23;20017;-92
2021/06/21 11:03:25;;;;;;;10.82;5.47;;;14.30;99.90;;;;;;6183339;23;20317;-91
2021/06/21 11:06:06;;;;;;;14.35;5.43;;;14.30;99.90;;;;;;6160091;23;20016;-92
2021/06/21 11:08:54;;;;;;;15.25;5.57;;;14.30;99.90;;;;;;6182265;23;20025;-91
2021/06/21 11:11:53;;;;;;;14.82;5.47;;;14.30;99.90;;;;;;6137910;23;20000;-92
2021/06/21 11:14:26;;;;;;;15.77;5.63;;;14.20;99.90;;;;;;6156999;23;20016;-93
2021/06/21 11:17:31;;;;;;;22.02;7.57;;;14.10;99.90;;;;;;6155479;23;20036;-92
2021/06/21 11:20:31;;;;;;;16.98;6.28;;;14.10;99.90;;;;;;6072368;23;20012;-92
2021/06/21 11:23:03;;;;;;;18.00;6.65;;;14.10;99.90;;;;;;6134054;23;20039;-92
2021/06/21 11:25:42;;;;;;;14.00;6.07;;;14.00;99.90;;;;;;6159081;23;20017;-94
2021/06/21 11:28:41;;;;;;;16.85;7.18;;;14.10;99.90;;;;;;6157587;23;20191;-93
2021/06/21 11:31:19;;;;;;;19.67;6.03;;;14.10;99.90;;;;;;6132530;23;20100;-94
2021/06/21 11:34:01;;;;;;;21.60;5.93;;;14.10;99.90;;;;;;6133594;23;20023;-93
2021/06/21 11:36:42;;;;;;;15.88;7.95;;;14.20;99.90;;;;;;6133006;23;20021;-93
2021/06/21 11:42:58;;;;;;;16.80;6.68;;;14.40;99.90;;;;;;6154942;23;20032;-93
2021/06/21 11:46:21;;;;;;;17.92;7.45;;;14.40;99.90;;;;;;6154009;23;20021;-92
2021/06/21 11:49:07;;;;;;;18.23;6.18;;;14.50;99.90;;;;;;6129402;23;20026;-92
2021/06/21 11:51:52;;;;;;;18.50;6.70;;;14.60;99.90;;;;;;6126970;23;20018;-93
2021/06/21 11:54:28;;;;;;;16.15;7.07;;;14.60;99.90;;;;;;6095228;23;20018;-93
2021/06/21 11:57:00;;;;;;;16.95;7.57;;;14.60;99.90;;;;;;6117453;23;20058;-89
2021/06/21 11:59:35;;;;;;;20.73;7.60;;;14.70;99.90;;;;;;6117858;23;20340;-90
2021/06/21 12:02:15;;;;;;;20.63;6.72;;;14.70;99.90;;;;;;6143253;23;20441;-90
2021/06/21 12:04:45;;;;;;;17.15;7.28;;;14.80;99.90;;;;;;6140896;23;20018;-89
2021/06/21 12:07:28;;;;;;;15.50;6.53;;;14.80;99.90;;;;;;6142151;23;20013;-89
2021/06/21 12:09:57;;;;;;;17.02;5.95;;;14.80;99.90;;;;;;6089664;23;20026;-88
2021/06/21 12:12:31;;;;;;;19.75;7.13;;;14.80;99.90;;;;;;6116252;23;20018;-90
2021/06/21 12:15:00;;;;;;;16.60;6.78;;;14.80;99.90;;;;;;6117075;23;20025;-89
2021/06/21 12:17:33;;;;;;;15.60;6.45;;;14.70;99.90;;;;;;6119883;23;20017;-90
2021/06/21 12:20:18;;;;;;;16.45;7.00;;;14.70;99.90;;;;;;6113146;23;20022;-90
2021/06/21 12:22:57;;;;;;;21.98;7.00;;;14.80;99.90;;;;;;6136978;23;20029;-89
2021/06/21 12:25:29;;;;;;;13.93;6.40;;;14.80;99.90;;;;;;6135467;23;20028;-91
2021/06/21 12:28:23;;;;;;;13.85;7.00;;;14.80;99.90;;;;;;6087370;23;20023;-90
2021/06/21 12:31:03;;;;;;;14.13;6.03;;;14.90;99.90;;;;;;6139511;23;20014;-91
2021/06/21 12:33:39;;;;;;;10.90;5.82;;;14.80;99.90;;;;;;6118905;23;20036;-92
2021/06/21 12:36:17;;;;;;;13.43;6.28;;;14.80;99.90;;;;;;6100734;23;20021;-92
2021/06/21 12:39:05;;;;;;;12.80;6.20;;;14.80;99.90;;;;;;6125365;23;20016;-91
2021/06/21 12:41:36;;;;;;;15.15;7.28;;;14.80;99.90;;;;;;6091799;23;20018;-91
2021/06/21 12:44:11;;;;;;;27.23;7.10;;;14.80;99.90;;;;;;6093408;23;20021;-91
2021/06/21 12:46:46;;;;;;;20.75;6.35;;;14.80;99.90;;;;;;6142112;23;20021;-89
2021/06/21 12:49:20;;;;;;;13.85;5.97;;;14.80;99.90;;;;;;6143481;23;20017;-92
2021/06/21 12:51:56;;;;;;;15.63;7.50;;;14.80;99.90;;;;;;6180301;23;20101;-93
2021/06/21 12:54:55;;;;;;;22.27;8.88;;;14.80;99.90;;;;;;6132057;23;20027;-93
2021/06/21 12:57:54;;;;;;;14.73;6.55;;;14.80;99.90;;;;;;6163261;23;20080;-91
2021/06/21 13:05:06;;;;;;;16.27;7.70;;;14.50;99.90;;;;;;6157512;23;20027;-93
2021/06/21 13:07:35;;;;;;;19.77;6.95;;;14.80;99.90;;;;;;6173692;23;20021;-88
2021/06/21 13:10:23;;;;;;;14.57;6.72;;;14.80;99.90;;;;;;6160653;23;20076;-94
2021/06/21 13:12:57;;;;;;;15.03;7.03;;;14.70;99.90;;;;;;6159400;23;20067;-93
2021/06/21 13:15:39;;;;;;;16.45;5.90;;;14.70;99.90;;;;;;6184586;23;20253;-92
2021/06/21 13:18:08;;;;;;;15.95;6.38;;;14.70;99.90;;;;;;6153082;23;20328;-92
2021/06/21 13:20:48;;;;;;;11.43;6.30;;;14.60;99.90;;;;;;6128590;23;20025;-92
2021/06/21 13:23:18;;;;;;;17.80;6.90;;;14.60;99.90;;;;;;6154950;23;20020;-91
2021/06/21 13:25:48;;;;;;;18.45;6.82;;;14.60;99.90;;;;;;6152745;23;20021;-91
2021/06/21 13:28:20;;;;;;;19.48;7.47;;;14.60;99.90;;;;;;6151810;23;20024;-92
2021/06/21 13:31:01;;;;;;;14.30;5.60;;;14.60;99.90;;;;;;6126988;23;20017;-91
2021/06/21 13:33:29;;;;;;;13.48;5.85;;;14.60;99.90;;;;;;6149347;23;20023;-92
2021/06/21 13:36:03;;;;;;;12.27;5.75;;;14.60;99.90;;;;;;6125601;23;20017;-92
2021/06/21 13:38:35;;;;;;;15.57;6.60;;;14.60;99.90;;;;;;6169644;23;20021;-94
2021/06/21 13:41:16;;;;;;;13.80;6.70;;;14.70;99.90;;;;;;6146712;23;20028;-91
2021/06/21 13:43:45;;;;;;;15.98;5.45;;;14.70;99.90;;;;;;6172489;23;20017;-92
2021/06/21 13:46:17;;;;;;;17.45;6.28;;;14.80;99.90;;;;;;6150005;23;20016;-91
2021/06/21 13:48:47;;;;;;;;;;;14.80;99.90;;;;;;6146965;23;20020;-89
2021/06/21 13:51:20;;;;;;;14.38;7.22;;;14.80;99.90;;;;;;6152184;23;19926;-92
2021/06/21 13:53:50;;;;;;;18.95;6.07;;;14.80;99.90;;;;;;6104969;23;20321;-92
2021/06/21 13:56:32;;;;;;;17.25;5.97;;;14.80;99.90;;;;;;6148093;23;20029;-93
2021/06/21 13:59:11;;;;;;;10.82;5.15;;;14.00;99.90;;;;;;6125484;23;20461;-91
2021/06/21 14:01:53;;;;;;;16.80;5.85;;;14.80;99.90;;;;;;6118243;23;20024;-86